createdAt,value
2023-04-08T00:01:23.258Z,1009.73
2023-04-08T00:03:56.349Z,1009.75
2023-04-08T00:06:32.169Z,1009.75
2023-04-08T00:09:04.931Z,1009.75
2023-04-08T00:11:38.388Z,1009.76
2023-04-08T00:14:12.280Z,1009.76
2023-04-08T00:16:45.038Z,1009.78
2023-04-08T00:19:18.477Z,1009.80
2023-04-08T00:21:52.233Z,1009.82
2023-04-08T00:24:25.218Z,1009.84
2023-04-08T00:26:58.195Z,1009.85
2023-04-08T00:29:31.354Z,1009.86
2023-04-08T00:32:05.152Z,1009.87
2023-04-08T00:34:38.331Z,1009.88
2023-04-08T00:37:12.208Z,1009.88
2023-04-08T00:39:45.277Z,1009.90
2023-04-08T00:42:18.294Z,1009.90
2023-04-08T00:44:51.017Z,1009.91
2023-04-08T00:47:24.417Z,1009.92
2023-04-08T00:49:58.261Z,1009.92
2023-04-08T00:52:31.402Z,1009.93
2023-04-08T00:55:05.915Z,1009.94
2023-04-08T00:57:39.558Z,1009.94
2023-04-08T01:00:13.101Z,1009.94
2023-04-08T01:02:46.565Z,1009.94
2023-04-08T01:05:20.261Z,1009.95
2023-04-08T01:07:53.283Z,1009.95
2023-04-08T01:10:26.315Z,1009.95
2023-04-08T01:12:59.140Z,1009.94
2023-04-08T01:15:32.244Z,1009.93
2023-04-08T01:18:05.284Z,1009.93
2023-04-08T01:20:38.398Z,1009.93
2023-04-08T01:23:12.570Z,1009.93
2023-04-08T01:25:46.249Z,1009.94
2023-04-08T01:28:19.238Z,1009.95
2023-04-08T01:30:52.135Z,1009.94
2023-04-08T01:33:25.321Z,1009.94
2023-04-08T01:35:58.437Z,1009.95
2023-04-08T01:38:31.216Z,1009.96
2023-04-08T01:41:04.171Z,1009.97
2023-04-08T01:43:37.435Z,1009.97
2023-04-08T01:46:10.364Z,1009.97
2023-04-08T01:48:43.451Z,1009.97
2023-04-08T01:51:17.374Z,1009.97
2023-04-08T01:53:50.389Z,1009.95
2023-04-08T01:56:23.330Z,1009.93
2023-04-08T01:58:56.470Z,1009.91
2023-04-08T02:01:29.631Z,1009.90
2023-04-08T02:04:02.374Z,1009.90
2023-04-08T02:06:35.558Z,1009.89
2023-04-08T02:09:09.039Z,1009.88
2023-04-08T02:11:42.380Z,1009.88
2023-04-08T02:14:15.512Z,1009.88
2023-04-08T02:16:49.545Z,1009.90
2023-04-08T02:19:23.201Z,1009.90
2023-04-08T02:21:56.172Z,1009.92
2023-04-08T02:24:29.425Z,1009.93
2023-04-08T02:27:02.302Z,1009.95
2023-04-08T02:29:35.552Z,1009.95
2023-04-08T02:32:09.362Z,1009.96
2023-04-08T02:34:42.518Z,1009.96
2023-04-08T02:37:16.571Z,1009.96
2023-04-08T02:39:50.553Z,1009.97
2023-04-08T02:42:24.476Z,1009.97
2023-04-08T02:44:57.497Z,1009.97
2023-04-08T02:47:30.659Z,1009.98
2023-04-08T02:50:04.373Z,1009.97
2023-04-08T02:52:37.202Z,1009.98
2023-04-08T02:55:10.390Z,1009.98
2023-04-08T02:57:43.251Z,1009.98
2023-04-08T03:00:16.482Z,1009.98
2023-04-08T03:02:49.740Z,1009.96
2023-04-08T03:05:22.489Z,1009.96
2023-04-08T03:07:55.487Z,1009.96
2023-04-08T03:10:28.647Z,1009.97
2023-04-08T03:13:02.276Z,1009.98
2023-04-08T03:15:35.348Z,1009.98
2023-04-08T03:18:08.448Z,1009.99
2023-04-08T03:20:41.503Z,1010.00
2023-04-08T03:23:14.185Z,1010.01
2023-04-08T03:25:47.598Z,1010.01
2023-04-08T03:28:21.500Z,1010.01
2023-04-08T03:30:54.506Z,1010.02
2023-04-08T03:33:27.515Z,1010.02
2023-04-08T03:36:00.559Z,1010.04
2023-04-08T03:38:33.533Z,1010.06
2023-04-08T03:41:06.467Z,1010.08
2023-04-08T03:43:39.297Z,1010.10
2023-04-08T03:46:12.525Z,1010.10
2023-04-08T03:48:45.386Z,1010.11
2023-04-08T03:51:18.654Z,1010.11
2023-04-08T03:53:52.336Z,1010.12
2023-04-08T03:56:25.476Z,1010.13
2023-04-08T03:58:58.517Z,1010.15
2023-04-08T04:01:31.632Z,1010.16
2023-04-08T04:04:04.715Z,1010.17
2023-04-08T04:06:38.571Z,1010.18
2023-04-08T04:09:11.465Z,1010.19
2023-04-08T04:11:44.336Z,1010.21
2023-04-08T04:14:17.502Z,1010.22
2023-04-08T04:16:50.714Z,1010.23
2023-04-08T04:19:24.631Z,1010.24
2023-04-08T04:21:57.563Z,1010.25
2023-04-08T04:24:30.381Z,1010.25
2023-04-08T04:27:03.554Z,1010.27
2023-04-08T04:29:36.374Z,1010.28
2023-04-08T04:32:09.567Z,1010.29
2023-04-08T04:34:42.742Z,1010.31
2023-04-08T04:37:16.574Z,1010.33
2023-04-08T04:39:49.598Z,1010.35
2023-04-08T04:42:22.815Z,1010.37
2023-04-08T04:44:56.274Z,1010.38
2023-04-08T04:47:29.626Z,1010.40
2023-04-08T04:50:02.712Z,1010.40
2023-04-08T04:52:36.669Z,1010.42
2023-04-08T04:55:09.276Z,1010.42
2023-04-08T04:57:42.595Z,1010.43
2023-04-08T05:00:18.638Z,1010.45
2023-04-08T05:02:51.895Z,1010.47
2023-04-08T05:05:24.439Z,1010.49
2023-04-08T05:07:57.623Z,1010.51
2023-04-08T05:10:30.894Z,1010.53
2023-04-08T05:13:04.612Z,1010.55
2023-04-08T05:15:37.694Z,1010.57
2023-04-08T05:18:10.371Z,1010.59
2023-04-08T05:20:43.741Z,1010.61
2023-04-08T05:23:16.663Z,1010.63
2023-04-08T05:25:52.632Z,1010.66
2023-04-08T05:28:25.479Z,1010.67
2023-04-08T05:30:58.550Z,1010.68
2023-04-08T05:33:31.857Z,1010.70
2023-04-08T05:36:04.697Z,1010.72
2023-04-08T05:38:37.747Z,1010.73
2023-04-08T05:41:10.601Z,1010.74
2023-04-08T05:43:43.704Z,1010.77
2023-04-08T05:46:16.515Z,1010.80
2023-04-08T05:48:49.986Z,1010.82
2023-04-08T05:51:22.955Z,1010.84
2023-04-08T05:53:56.735Z,1010.86
2023-04-08T05:56:29.925Z,1010.87
2023-04-08T05:59:03.861Z,1010.88
2023-04-08T06:01:37.643Z,1010.91
2023-04-08T06:04:16.722Z,1010.95
2023-04-08T06:06:49.712Z,1010.96
2023-04-08T06:09:22.377Z,1010.99
2023-04-08T06:11:55.671Z,1011.02
2023-04-08T06:14:28.924Z,1011.05
2023-04-08T06:17:02.465Z,1011.08
2023-04-08T06:19:35.605Z,1011.11
2023-04-08T06:22:08.597Z,1011.13
2023-04-08T06:24:41.510Z,1011.16
2023-04-08T06:27:14.398Z,1011.19
2023-04-08T06:29:48.560Z,1011.21
2023-04-08T06:32:21.765Z,1011.24
2023-04-08T06:34:54.617Z,1011.26
2023-04-08T06:37:27.658Z,1011.30
2023-04-08T06:40:00.981Z,1011.33
2023-04-08T06:42:34.702Z,1011.34
2023-04-08T06:45:07.417Z,1011.37
2023-04-08T06:47:40.747Z,1011.38
2023-04-08T06:50:13.581Z,1011.41
2023-04-08T06:52:46.944Z,1011.41
2023-04-08T06:55:20.746Z,1011.44
2023-04-08T06:57:53.640Z,1011.46
2023-04-08T07:00:26.572Z,1011.46
2023-04-08T07:02:59.775Z,1011.47
2023-04-08T07:05:32.759Z,1011.46
2023-04-08T07:08:05.608Z,1011.49
2023-04-08T07:10:38.627Z,1011.50
2023-04-08T07:13:11.781Z,1011.52
2023-04-08T07:15:44.744Z,1011.53
2023-04-08T07:18:17.515Z,1011.56
2023-04-08T07:20:50.734Z,1011.59
2023-04-08T07:23:23.497Z,1011.62
2023-04-08T07:25:56.489Z,1011.64
2023-04-08T07:28:29.783Z,1011.67
2023-04-08T07:31:02.535Z,1011.71
2023-04-08T07:33:35.660Z,1011.74
2023-04-08T07:36:08.826Z,1011.78
2023-04-08T07:38:47.860Z,1011.81
2023-04-08T07:41:20.537Z,1011.84
2023-04-08T07:43:53.684Z,1011.88
2023-04-08T07:46:26.908Z,1011.91
2023-04-08T07:48:59.908Z,1011.94
2023-04-08T07:51:32.653Z,1011.97
2023-04-08T07:54:05.857Z,1011.96
2023-04-08T07:56:38.880Z,1011.99
2023-04-08T07:59:11.820Z,1012.01
2023-04-08T08:01:44.751Z,1012.02
2023-04-08T08:04:18.163Z,1012.02
2023-04-08T08:06:50.928Z,1012.03
2023-04-08T08:09:23.860Z,1012.03
2023-04-08T08:11:56.918Z,1012.04
2023-04-08T08:14:29.687Z,1012.06
2023-04-08T08:17:02.861Z,1012.07
2023-04-08T08:19:36.042Z,1012.09
2023-04-08T08:22:09.973Z,1012.10
2023-04-08T08:24:42.729Z,1012.09
2023-04-08T08:27:15.753Z,1012.09
2023-04-08T08:29:48.806Z,1012.10
2023-04-08T08:32:21.885Z,1012.12
2023-04-08T08:34:54.939Z,1012.14
2023-04-08T08:37:27.634Z,1012.15
2023-04-08T08:40:00.805Z,1012.17
2023-04-08T08:42:34.432Z,1012.19
2023-04-08T08:45:06.622Z,1012.20
2023-04-08T08:47:39.752Z,1012.22
2023-04-08T08:50:12.795Z,1012.24
2023-04-08T08:52:45.829Z,1012.26
2023-04-08T08:55:36.260Z,1012.27
2023-04-08T08:57:51.831Z,1012.31
2023-04-08T09:00:24.644Z,1012.34
2023-04-08T09:02:57.993Z,1012.36
2023-04-08T09:05:30.834Z,1012.40
2023-04-08T09:08:03.681Z,1012.41
2023-04-08T09:10:36.865Z,1012.43
2023-04-08T09:13:09.664Z,1012.44
2023-04-08T09:15:42.784Z,1012.46
2023-04-08T09:18:17.405Z,1012.48
2023-04-08T09:20:48.852Z,1012.48
2023-04-08T09:23:22.027Z,1012.48
2023-04-08T09:26:08.646Z,1012.48
2023-04-08T09:28:41.828Z,1012.49
2023-04-08T09:31:14.833Z,1012.49
2023-04-08T09:33:47.801Z,1012.50
2023-04-08T09:36:20.807Z,1012.50
2023-04-08T09:38:53.877Z,1012.51
2023-04-08T09:41:27.007Z,1012.52
2023-04-08T09:44:00.117Z,1012.53
2023-04-08T09:46:32.988Z,1012.55
2023-04-08T09:49:06.004Z,1012.56
2023-04-08T09:51:39.237Z,1012.58
2023-04-08T09:54:13.114Z,1012.60
2023-04-08T09:56:45.907Z,1012.61
2023-04-08T09:59:18.914Z,1012.62
2023-04-08T10:01:51.978Z,1012.63
2023-04-08T10:04:24.820Z,1012.63
2023-04-08T10:06:57.957Z,1012.63
2023-04-08T10:09:30.774Z,1012.60
2023-04-08T10:12:03.766Z,1012.61
2023-04-08T10:14:36.855Z,1012.60
2023-04-08T10:17:09.785Z,1012.61
2023-04-08T10:19:42.867Z,1012.60
2023-04-08T10:22:16.004Z,1012.61
2023-04-08T10:24:48.912Z,1012.62
2023-04-08T10:27:21.884Z,1012.62
2023-04-08T10:29:55.007Z,1012.63
2023-04-08T10:32:29.743Z,1012.64
2023-04-08T10:35:02.792Z,1012.64
2023-04-08T10:37:36.156Z,1012.65
2023-04-08T10:40:09.069Z,1012.67
2023-04-08T10:42:42.185Z,1012.69
2023-04-08T10:45:15.003Z,1012.70
2023-04-08T10:47:48.086Z,1012.71
2023-04-08T10:50:21.218Z,1012.71
2023-04-08T10:52:54.197Z,1012.69
2023-04-08T10:55:27.225Z,1012.70
2023-04-08T10:58:00.042Z,1012.69
2023-04-08T11:00:32.824Z,1012.67
2023-04-08T11:03:06.081Z,1012.66
2023-04-08T11:05:39.229Z,1012.66
2023-04-08T11:08:12.163Z,1012.64
2023-04-08T11:10:44.987Z,1012.63
2023-04-08T11:13:18.113Z,1012.61
2023-04-08T11:15:51.038Z,1012.59
2023-04-08T11:18:23.904Z,1012.58
2023-04-08T11:21:10.782Z,1012.57
2023-04-08T11:23:44.040Z,1012.57
2023-04-08T11:26:20.202Z,1012.56
2023-04-08T11:28:53.044Z,1012.56
2023-04-08T11:31:26.058Z,1012.57
2023-04-08T11:33:59.273Z,1012.56
2023-04-08T11:36:32.255Z,1012.55
2023-04-08T11:39:04.906Z,1012.53
2023-04-08T11:41:38.179Z,1012.52
2023-04-08T11:44:10.889Z,1012.50
2023-04-08T11:46:44.035Z,1012.47
2023-04-08T11:49:30.802Z,1012.45
2023-04-08T11:52:03.892Z,1012.45
2023-04-08T11:54:36.928Z,1012.44
2023-04-08T11:57:09.928Z,1012.43
2023-04-08T11:59:43.312Z,1012.40
2023-04-08T12:02:16.230Z,1012.37
2023-04-08T12:04:49.118Z,1012.35
2023-04-08T12:07:22.066Z,1012.33
2023-04-08T12:09:55.075Z,1012.31
2023-04-08T12:12:28.159Z,1012.29
2023-04-08T12:15:01.069Z,1012.27
2023-04-08T12:17:34.008Z,1012.26
2023-04-08T12:20:07.174Z,1012.24
2023-04-08T12:22:40.210Z,1012.23
2023-04-08T12:25:12.987Z,1012.21
2023-04-08T12:27:46.164Z,1012.22
2023-04-08T12:30:32.879Z,1012.22
2023-04-08T12:33:06.016Z,1012.22
2023-04-08T12:35:39.004Z,1012.23
2023-04-08T12:38:12.008Z,1012.23
2023-04-08T12:40:45.340Z,1012.22
2023-04-08T12:43:18.288Z,1012.21
2023-04-08T12:45:50.991Z,1012.20
2023-04-08T12:48:24.468Z,1012.19
2023-04-08T12:50:58.185Z,1012.17
2023-04-08T12:53:31.014Z,1012.17
2023-04-08T12:56:10.258Z,1012.17
2023-04-08T12:58:43.232Z,1012.17
2023-04-08T13:01:16.469Z,1012.16
2023-04-08T13:03:49.503Z,1012.17
2023-04-08T13:06:22.585Z,1012.15
2023-04-08T13:08:56.378Z,1012.15
2023-04-08T13:11:29.333Z,1012.13
2023-04-08T13:14:02.386Z,1012.12
2023-04-08T13:16:35.367Z,1012.09
2023-04-08T13:19:08.394Z,1012.09
2023-04-08T13:21:41.355Z,1012.08
2023-04-08T13:24:14.441Z,1012.08
2023-04-08T13:26:47.198Z,1012.08
2023-04-08T13:29:20.558Z,1012.09
2023-04-08T13:31:54.448Z,1012.10
2023-04-08T13:34:27.393Z,1012.10
2023-04-08T13:37:00.396Z,1012.13
2023-04-08T13:39:33.421Z,1012.14
2023-04-08T13:42:06.287Z,1012.13
2023-04-08T13:44:39.355Z,1012.12
2023-04-08T13:47:12.400Z,1012.12
2023-04-08T13:49:45.366Z,1012.11
2023-04-08T13:52:18.391Z,1012.10
2023-04-08T13:54:51.281Z,1012.08
2023-04-08T13:57:24.346Z,1012.08
2023-04-08T13:59:57.648Z,1012.08
2023-04-08T14:02:31.481Z,1012.08
2023-04-08T14:05:04.312Z,1012.07
2023-04-08T14:07:37.083Z,1012.05
2023-04-08T14:10:24.291Z,1012.04
2023-04-08T14:12:57.442Z,1012.03
2023-04-08T14:15:30.484Z,1012.02
2023-04-08T14:18:03.206Z,1012.00
2023-04-08T14:20:36.392Z,1011.99
2023-04-08T14:23:09.183Z,1011.98
2023-04-08T14:25:42.323Z,1011.97
2023-04-08T14:28:15.520Z,1011.96
2023-04-08T14:30:48.277Z,1011.96
2023-04-08T14:33:21.518Z,1011.94
2023-04-08T14:35:54.423Z,1011.92
2023-04-08T14:38:27.170Z,1011.92
2023-04-08T14:41:00.315Z,1011.91
2023-04-08T14:43:33.139Z,1011.88
2023-04-08T14:46:06.249Z,1011.88
2023-04-08T14:48:39.176Z,1011.87
2023-04-08T14:51:12.405Z,1011.89
2023-04-08T14:53:45.179Z,1011.89
2023-04-08T14:56:18.246Z,1011.90
2023-04-08T14:58:57.489Z,1011.90
2023-04-08T15:01:31.423Z,1011.92
2023-04-08T15:04:04.257Z,1011.93
2023-04-08T15:06:37.370Z,1011.92
2023-04-08T15:09:10.485Z,1011.94
2023-04-08T15:11:44.194Z,1011.93
2023-04-08T15:14:17.542Z,1011.94
2023-04-08T15:16:50.401Z,1011.96
2023-04-08T15:19:23.306Z,1011.97
2023-04-08T15:21:56.497Z,1011.99
2023-04-08T15:24:29.472Z,1011.99
2023-04-08T15:27:02.334Z,1012.00
2023-04-08T15:29:35.774Z,1012.01
2023-04-08T15:32:09.249Z,1012.03
2023-04-08T15:34:42.508Z,1012.04
2023-04-08T15:37:15.375Z,1012.06
2023-04-08T15:39:48.548Z,1012.06
2023-04-08T15:42:21.289Z,1012.07
2023-04-08T15:44:54.273Z,1012.09
2023-04-08T15:47:27.635Z,1012.10
2023-04-08T15:50:00.456Z,1012.11
2023-04-08T15:52:33.362Z,1012.14
2023-04-08T15:55:06.275Z,1012.15
2023-04-08T15:57:39.275Z,1012.17
2023-04-08T16:00:12.878Z,1012.20
2023-04-08T16:02:45.463Z,1012.23
2023-04-08T16:05:18.491Z,1012.24
2023-04-08T16:07:51.428Z,1012.25
2023-04-08T16:10:24.636Z,1012.25
2023-04-08T16:12:57.425Z,1012.26
2023-04-08T16:15:30.474Z,1012.26
2023-04-08T16:18:03.393Z,1012.28
2023-04-08T16:20:36.472Z,1012.30
2023-04-08T16:23:09.640Z,1012.32
2023-04-08T16:25:42.693Z,1012.33
2023-04-08T16:28:15.630Z,1012.35
2023-04-08T16:30:48.310Z,1012.37
2023-04-08T16:33:21.469Z,1012.38
2023-04-08T16:35:54.426Z,1012.38
2023-04-08T16:38:27.429Z,1012.39
2023-04-08T16:41:00.425Z,1012.40
2023-04-08T16:43:33.423Z,1012.41
2023-04-08T16:46:06.648Z,1012.41
2023-04-08T16:48:39.351Z,1012.44
2023-04-08T16:51:12.595Z,1012.45
2023-04-08T16:53:45.643Z,1012.47
2023-04-08T16:56:18.716Z,1012.48
2023-04-08T16:58:51.339Z,1012.49
2023-04-08T17:01:24.767Z,1012.49
2023-04-08T17:03:57.753Z,1012.52
2023-04-08T17:06:30.512Z,1012.54
2023-04-08T17:09:03.832Z,1012.55
2023-04-08T17:11:36.768Z,1012.58
2023-04-08T17:14:09.742Z,1012.57
2023-04-08T17:16:42.365Z,1012.59
2023-04-08T17:19:15.510Z,1012.61
2023-04-08T17:21:48.492Z,1012.64
2023-04-08T17:24:21.769Z,1012.67
2023-04-08T17:26:54.655Z,1012.69
2023-04-08T17:29:27.548Z,1012.72
2023-04-08T17:32:00.775Z,1012.76
2023-04-08T17:34:34.129Z,1012.78
2023-04-08T17:37:07.689Z,1012.80
2023-04-08T17:39:41.061Z,1012.81
2023-04-08T17:42:13.512Z,1012.83
2023-04-08T17:44:46.406Z,1012.85
2023-04-08T17:47:19.545Z,1012.88
2023-04-08T17:49:52.441Z,1012.91
2023-04-08T17:52:25.507Z,1012.93
2023-04-08T17:54:58.587Z,1012.96
2023-04-08T17:57:31.731Z,1012.97
2023-04-08T18:00:04.740Z,1012.98
2023-04-08T18:02:37.723Z,1013.01
2023-04-08T18:05:10.500Z,1013.04
2023-04-08T18:07:43.798Z,1013.05
2023-04-08T18:10:16.708Z,1013.07
2023-04-08T18:12:52.500Z,1013.10
2023-04-08T18:15:22.450Z,1013.11
2023-04-08T18:17:55.540Z,1013.14
2023-04-08T18:20:28.607Z,1013.15
2023-04-08T18:23:01.810Z,1013.17
2023-04-08T18:25:34.786Z,1013.19
2023-04-08T18:28:07.838Z,1013.22
2023-04-08T18:30:40.529Z,1013.26
2023-04-08T18:33:13.759Z,1013.29
2023-04-08T18:35:46.629Z,1013.30
2023-04-08T18:38:19.621Z,1013.32
2023-04-08T18:40:52.507Z,1013.32
2023-04-08T18:43:25.804Z,1013.34
2023-04-08T18:45:58.755Z,1013.35
2023-04-08T18:48:31.705Z,1013.36
2023-04-08T18:51:04.563Z,1013.37
2023-04-08T18:53:37.533Z,1013.39
2023-04-08T18:56:10.529Z,1013.40
2023-04-08T18:58:43.524Z,1013.44
2023-04-08T19:01:16.794Z,1013.45
2023-04-08T19:03:50.320Z,1013.46
2023-04-08T19:06:23.911Z,1013.46
2023-04-08T19:08:56.775Z,1013.48
2023-04-08T19:11:29.674Z,1013.49
2023-04-08T19:14:02.721Z,1013.51
2023-04-08T19:16:35.701Z,1013.52
2023-04-08T19:19:08.558Z,1013.53
2023-04-08T19:21:41.762Z,1013.53
2023-04-08T19:24:14.721Z,1013.54
2023-04-08T19:26:47.973Z,1013.56
2023-04-08T19:29:20.693Z,1013.57
2023-04-08T19:31:54.052Z,1013.59
2023-04-08T19:34:28.023Z,1013.60
2023-04-08T19:37:01.833Z,1013.60
2023-04-08T19:39:34.932Z,1013.60
2023-04-08T19:42:07.832Z,1013.60
2023-04-08T19:44:40.820Z,1013.62
2023-04-08T19:47:13.989Z,1013.64
2023-04-08T19:49:47.119Z,1013.64
2023-04-08T19:52:20.742Z,1013.64
2023-04-08T19:54:53.820Z,1013.64
2023-04-08T19:57:26.736Z,1013.64
2023-04-08T20:00:03.802Z,1013.65
2023-04-08T20:02:37.232Z,1013.66
2023-04-08T20:05:12.896Z,1013.67
2023-04-08T20:07:46.026Z,1013.67
2023-04-08T20:10:19.033Z,1013.67
2023-04-08T20:12:51.839Z,1013.68
2023-04-08T20:15:25.560Z,1013.70
2023-04-08T20:17:57.969Z,1013.71
2023-04-08T20:20:31.019Z,1013.72
2023-04-08T20:23:04.274Z,1013.73
2023-04-08T20:25:37.795Z,1013.74
2023-04-08T20:28:10.671Z,1013.75
2023-04-08T20:30:43.770Z,1013.77
2023-04-08T20:33:17.074Z,1013.77
2023-04-08T20:35:50.956Z,1013.80
2023-04-08T20:38:23.848Z,1013.82
2023-04-08T20:40:56.686Z,1013.84
2023-04-08T20:43:29.868Z,1013.85
2023-04-08T20:46:02.694Z,1013.85
2023-04-08T20:48:36.073Z,1013.86
2023-04-08T20:51:08.947Z,1013.88
2023-04-08T20:53:43.940Z,1013.89
2023-04-08T20:56:15.049Z,1013.90
2023-04-08T20:58:48.152Z,1013.92
2023-04-08T21:01:22.225Z,1013.92
2023-04-08T21:03:55.998Z,1013.93
2023-04-08T21:06:29.094Z,1013.93
2023-04-08T21:09:01.727Z,1013.93
2023-04-08T21:11:34.847Z,1013.94
2023-04-08T21:14:07.836Z,1013.94
2023-04-08T21:16:41.088Z,1013.96
2023-04-08T21:19:13.850Z,1013.98
2023-04-08T21:21:46.913Z,1013.98
2023-04-08T21:24:19.887Z,1013.99
2023-04-08T21:26:55.807Z,1014.02
2023-04-08T21:29:29.198Z,1014.03
2023-04-08T21:32:03.046Z,1014.05
2023-04-08T21:34:36.106Z,1014.05
2023-04-08T21:37:09.186Z,1014.05
2023-04-08T21:39:42.911Z,1014.05
2023-04-08T21:42:15.924Z,1014.07
2023-04-08T21:44:48.885Z,1014.08
2023-04-08T21:47:22.019Z,1014.11
2023-04-08T21:49:54.857Z,1014.12
2023-04-08T21:52:28.261Z,1014.14
2023-04-08T21:55:01.810Z,1014.14
2023-04-08T21:57:34.977Z,1014.15
2023-04-08T22:00:07.801Z,1014.15
2023-04-08T22:02:41.300Z,1014.15
2023-04-08T22:05:13.965Z,1014.15
2023-04-08T22:07:47.223Z,1014.16
2023-04-08T22:10:20.934Z,1014.16
2023-04-08T22:12:54.176Z,1014.17
2023-04-08T22:15:26.933Z,1014.18
2023-04-08T22:18:00.235Z,1014.19
2023-04-08T22:20:33.095Z,1014.19
2023-04-08T22:23:05.815Z,1014.20
2023-04-08T22:25:39.368Z,1014.19
2023-04-08T22:28:13.312Z,1014.20
2023-04-08T22:30:47.071Z,1014.19
2023-04-08T22:33:20.025Z,1014.18
2023-04-08T22:35:53.261Z,1014.17
2023-04-08T22:38:26.082Z,1014.18
2023-04-08T22:40:58.949Z,1014.15
2023-04-08T22:43:32.194Z,1014.14
2023-04-08T22:46:05.216Z,1014.14
2023-04-08T22:48:38.290Z,1014.14
2023-04-08T22:51:12.060Z,1014.14
2023-04-08T22:53:45.036Z,1014.15
2023-04-08T22:56:18.184Z,1014.15
2023-04-08T22:58:51.576Z,1014.15
2023-04-08T23:01:25.184Z,1014.16
2023-04-08T23:03:58.283Z,1014.16
2023-04-08T23:06:31.118Z,1014.16
2023-04-08T23:09:03.877Z,1014.17
2023-04-08T23:11:37.252Z,1014.18
2023-04-08T23:14:13.162Z,1014.17
2023-04-08T23:16:46.292Z,1014.16
2023-04-08T23:19:19.074Z,1014.17
2023-04-08T23:21:51.898Z,1014.18
2023-04-08T23:24:25.218Z,1014.19
2023-04-08T23:26:58.323Z,1014.21
2023-04-08T23:29:32.328Z,1014.22
2023-04-08T23:32:04.914Z,1014.23
2023-04-08T23:34:38.298Z,1014.22
2023-04-08T23:37:10.915Z,1014.23
2023-04-08T23:39:47.251Z,1014.25
2023-04-08T23:42:20.257Z,1014.27
2023-04-08T23:44:53.113Z,1014.28
2023-04-08T23:47:26.191Z,1014.28
2023-04-08T23:49:59.052Z,1014.27
2023-04-08T23:52:32.279Z,1014.26
2023-04-08T23:55:05.041Z,1014.24
2023-04-08T23:57:38.125Z,1014.25
